sensor_id;sensor_type;location;lat;lon;timestamp;P1;durP1;ratioP1;P2;durP2;ratioP2
62106;SDS011;48087;32.600;-97.100;2022-07-01T00:04:19;22;;;15;;
62106;SDS011;48087;32.600;-97.100;2022-07-01T00:26:50;15;;;14;;
62106;SDS011;48087;32.600;-97.100;2022-07-01T00:49:19;15;;;14;;
62106;SDS011;48087;32.600;-97.100;2022-07-01T00:50:28;22;;;15;;
62106;SDS011;48087;32.600;-97.100;2022-07-01T01:12:58;22;;;15;;
62106;SDS011;48087;32.600;-97.100;2022-07-01T01:35:26;15;;;14;;
62106;SDS011;48087;32.600;-97.100;2022-07-01T01:36:36;23;;;16;;
62106;SDS011;48087;32.600;-97.100;2022-07-01T01:59:04;23;;;16;;
62106;SDS011;48087;32.600;-97.100;2022-07-01T02:21:32;23;;;16;;
62106;SDS011;48087;32.600;-97.100;2022-07-01T02:44:01;25;;;17;;
62106;SDS011;48087;32.600;-97.100;2022-07-01T02:45:09;24;;;17;;
62106;SDS011;48087;32.600;-97.100;2022-07-01T03:07:36;23;;;16;;
62106;SDS011;48087;32.600;-97.100;2022-07-01T03:30:04;14;;;13;;
62106;SDS011;48087;32.600;-97.100;2022-07-01T03:52:30;14;;;13;;
62106;SDS011;48087;32.600;-97.100;2022-07-01T04:14:56;10;;;9;;
62106;SDS011;48087;32.600;-97.100;2022-07-01T04:38:32;7;;;7;;
62106;SDS011;48087;32.600;-97.100;2022-07-01T05:00:57;7;;;7;;
62106;SDS011;48087;32.600;-97.100;2022-07-01T05:23:23;6;;;6;;
62106;SDS011;48087;32.600;-97.100;2022-07-01T05:45:48;6;;;6;;
62106;SDS011;48087;32.600;-97.100;2022-07-01T05:46:58;6;;;6;;
62106;SDS011;48087;32.600;-97.100;2022-07-01T06:31:47;6;;;6;;
62106;SDS011;48087;32.600;-97.100;2022-07-01T06:54:15;6;;;6;;
62106;SDS011;48087;32.600;-97.100;2022-07-01T07:16:37;7;;;7;;
62106;SDS011;48087;32.600;-97.100;2022-07-01T07:39:01;7;;;7;;
62106;SDS011;48087;32.600;-97.100;2022-07-01T08:01:25;7;;;7;;
62106;SDS011;48087;32.600;-97.100;2022-07-01T08:23:48;6;;;6;;
62106;SDS011;48087;32.600;-97.100;2022-07-01T08:24:58;7;;;7;;
62106;SDS011;48087;32.600;-97.100;2022-07-01T08:47:22;7;;;7;;
62106;SDS011;48087;32.600;-97.100;2022-07-01T09:09:46;7;;;7;;
62106;SDS011;48087;32.600;-97.100;2022-07-01T09:32:09;7;;;7;;
62106;SDS011;48087;32.600;-97.100;2022-07-01T09:54:32;8;;;8;;
62106;SDS011;48087;32.600;-97.100;2022-07-01T10:16:55;8;;;8;;
62106;SDS011;48087;32.600;-97.100;2022-07-01T10:39:18;9;;;9;;
62106;SDS011;48087;32.600;-97.100;2022-07-01T11:01:41;7;;;7;;
62106;SDS011;48087;32.600;-97.100;2022-07-01T11:24:07;9;;;9;;
62106;SDS011;48087;32.600;-97.100;2022-07-01T11:46:26;8;;;8;;
62106;SDS011;48087;32.600;-97.100;2022-07-01T12:08:50;8;;;8;;
62106;SDS011;48087;32.600;-97.100;2022-07-01T12:31:14;7;;;7;;
62106;SDS011;48087;32.600;-97.100;2022-07-01T12:53:39;7;;;7;;
62106;SDS011;48087;32.600;-97.100;2022-07-01T13:16:03;7;;;7;;
62106;SDS011;48087;32.600;-97.100;2022-07-01T13:17:12;7;;;7;;
62106;SDS011;48087;32.600;-97.100;2022-07-01T13:39:38;6;;;6;;
62106;SDS011;48087;32.600;-97.100;2022-07-01T14:24:32;4;;;4;;
62106;SDS011;48087;32.600;-97.100;2022-07-01T14:47:01;5;;;5;;
62106;SDS011;48087;32.600;-97.100;2022-07-01T15:09:30;6;;;6;;
62106;SDS011;48087;32.600;-97.100;2022-07-01T15:32:00;6;;;6;;
62106;SDS011;48087;32.600;-97.100;2022-07-01T15:54:30;7;;;7;;
62106;SDS011;48087;32.600;-97.100;2022-07-01T16:17:02;4;;;4;;
62106;SDS011;48087;32.600;-97.100;2022-07-01T16:39:33;4;;;4;;
62106;SDS011;48087;32.600;-97.100;2022-07-01T17:02:04;6;;;6;;
62106;SDS011;48087;32.600;-97.100;2022-07-01T17:24:36;6;;;6;;
62106;SDS011;48087;32.600;-97.100;2022-07-01T17:47:08;4;;;4;;
62106;SDS011;48087;32.600;-97.100;2022-07-01T18:09:39;5;;;5;;
62106;SDS011;48087;32.600;-97.100;2022-07-01T18:10:49;5;;;5;;
62106;SDS011;48087;32.600;-97.100;2022-07-01T18:55:52;6;;;6;;
62106;SDS011;48087;32.600;-97.100;2022-07-01T19:18:24;4;;;4;;
62106;SDS011;48087;32.600;-97.100;2022-07-01T19:40:57;6;;;6;;
62106;SDS011;48087;32.600;-97.100;2022-07-01T20:03:33;4;;;4;;
62106;SDS011;48087;32.600;-97.100;2022-07-01T20:26:02;4;;;4;;
62106;SDS011;48087;32.600;-97.100;2022-07-01T20:27:11;4;;;4;;
62106;SDS011;48087;32.600;-97.100;2022-07-01T20:49:43;4;;;4;;
62106;SDS011;48087;32.600;-97.100;2022-07-01T20:50:52;6;;;6;;
62106;SDS011;48087;32.600;-97.100;2022-07-01T21:13:24;7;;;7;;
62106;SDS011;48087;32.600;-97.100;2022-07-01T21:14:33;7;;;7;;
62106;SDS011;48087;32.600;-97.100;2022-07-01T21:37:05;10;;;9;;
62106;SDS011;48087;32.600;-97.100;2022-07-01T21:38:14;10;;;9;;
62106;SDS011;48087;32.600;-97.100;2022-07-01T22:00:45;10;;;9;;
62106;SDS011;48087;32.600;-97.100;2022-07-01T22:23:16;11;;;10;;
62106;SDS011;48087;32.600;-97.100;2022-07-01T22:45:49;11;;;10;;
62106;SDS011;48087;32.600;-97.100;2022-07-01T23:08:20;10;;;9;;
62106;SDS011;48087;32.600;-97.100;2022-07-01T23:30:48;8;;;7;;
62106;SDS011;48087;32.600;-97.100;2022-07-01T23:53:18;6;;;6;;
